This is the latest recevied weather packets stored in our database for station/object AA7F. If no packets are shown the sender has not sent any weather packets the latest 10 day(s).
| Time | Temp. | Humidity | Pressure | Rain* | Wind** | Luminosity | Snow |
|---|---|---|---|---|---|---|---|
| 1777533548 | 9.44° C | 81% | 1021.8 hPa | 0 mm | - | 0 W/m² | - |
| 1777533244 | 9.44° C | 81% | 1021.7 hPa | 0 mm | - | 0 W/m² | - |
| 1777532941 | 9.44° C | 81% | 1021.8 hPa | 0 mm | - | 0 W/m² | - |
| 1777532638 | 10° C | 80% | 1021.9 hPa | 0 mm | - | 0 W/m² | - |
| 1777532335 | 9.44° C | 81% | 1021.5 hPa | 0 mm | - | 0 W/m² | - |
| 1777532030 | 9.44° C | 81% | 1021.5 hPa | 0 mm | - | 0 W/m² | - |
| 1777531727 | 9.44° C | 81% | 1021.6 hPa | 0 mm | - | 0 W/m² | - |
| 1777531424 | 9.44° C | 81% | 1021.4 hPa | 0 mm | - | 0 W/m² | - |
| 1777531122 | 9.44° C | 81% | 1021.5 hPa | 0 mm | - | 0 W/m² | - |
| 1777530819 | 8.89° C | 83% | 1021.5 hPa | 0 mm | - | 0 W/m² | - |
| 1777530516 | 9.44° C | 80% | 1021.4 hPa | 0 mm | - | 0 W/m² | - |
| 1777530212 | 10° C | 80% | 1021.3 hPa | 0 mm | - | 0 W/m² | - |
| 1777529910 | 10° C | 78% | 1021.5 hPa | 0 mm | - | 0 W/m² | - |
| 1777529605 | 9.44° C | 81% | 1021.3 hPa | 0 mm | - | 0 W/m² | - |
| 1777529303 | 9.44° C | 81% | 1021.3 hPa | 0 mm | - | 0 W/m² | - |
| 1777528999 | 9.44° C | 80% | 1021.3 hPa | 0 mm | - | 0 W/m² | - |
| 1777528695 | 10.56° C | 74% | 1021.2 hPa | 0 mm | - | 0 W/m² | - |
| 1777528392 | 10.56° C | 74% | 1021.2 hPa | 0 mm | - | 0 W/m² | - |
| 1777528091 | 11.11° C | 73% | 1021.2 hPa | 0 mm | - | 0 W/m² | - |
| 1777527483 | 11.11° C | 73% | 1021.4 hPa | 0 mm | - | 0 W/m² | - |
| 1777527177 | 11.11° C | 71% | 1021.2 hPa | 0 mm | - | 0 W/m² | - |
| 1777526874 | 11.67° C | 69% | 1021.2 hPa | 0 mm | - | 0 W/m² | - |
| 1777526569 | 11.67° C | 69% | 1021.2 hPa | 0 mm | - | 0 W/m² | - |
| 1777526263 | 11.67° C | 71% | 1021.3 hPa | 0 mm | - | 0 W/m² | - |
| 1777525960 | 11.11° C | 72% | 1021.2 hPa | 0 mm | - | 0 W/m² | - |
* Rain latest hour (hover to see other rain measurements)
** Current wind speed in m/s (hover to see current wind gust speed)